createdAt,value
2023-05-05T00:00:56.974Z,100638.84
2023-05-05T00:03:25.666Z,100643.97
2023-05-05T00:05:54.564Z,100646.72
2023-05-05T00:08:22.621Z,100646.31
2023-05-05T00:10:52.028Z,100641.75
2023-05-05T00:13:20.949Z,100639.25
2023-05-05T00:15:50.077Z,100641.75
2023-05-05T00:18:18.235Z,100638.81
2023-05-05T00:20:49.463Z,100641.44
2023-05-05T00:23:17.007Z,100635.34
2023-05-05T00:25:44.529Z,100636.87
2023-05-05T00:28:14.098Z,100639.81
2023-05-05T00:30:41.531Z,100634.44
2023-05-05T00:33:10.334Z,100633.16
2023-05-05T00:35:37.668Z,100632.09
2023-05-05T00:38:05.178Z,100632.81
2023-05-05T00:40:33.037Z,100631.50
2023-05-05T00:43:00.427Z,100630.34
2023-05-05T00:45:28.241Z,100628.78
2023-05-05T00:47:57.941Z,100634.28
2023-05-05T00:50:27.448Z,100629.03
2023-05-05T00:52:57.002Z,100631.69
2023-05-05T00:55:24.685Z,100625.66
2023-05-05T00:57:52.340Z,100622.94
2023-05-05T01:00:19.696Z,100621.38
2023-05-05T01:02:47.319Z,100615.84
2023-05-05T01:05:16.122Z,100618.12
2023-05-05T01:07:43.610Z,100622.81
2023-05-05T01:10:22.203Z,100613.81
2023-05-05T01:13:00.371Z,100622.47
2023-05-05T01:15:36.803Z,100618.56
2023-05-05T01:18:11.796Z,100613.00
2023-05-05T01:20:49.631Z,100616.41
2023-05-05T01:23:35.091Z,100608.94
2023-05-05T01:26:33.060Z,100610.84
2023-05-05T01:29:29.286Z,100613.00
2023-05-05T01:32:01.778Z,100609.50
2023-05-05T01:35:02.300Z,100614.19
2023-05-05T01:37:38.462Z,100616.41
2023-05-05T01:40:08.351Z,100617.09
2023-05-05T01:42:38.182Z,100610.16
2023-05-05T01:45:08.233Z,100610.78
2023-05-05T01:47:37.864Z,100612.31
2023-05-05T01:50:06.820Z,100611.13
2023-05-05T01:52:36.480Z,100616.19
2023-05-05T01:55:05.127Z,100615.69
2023-05-05T01:57:33.260Z,100604.88
2023-05-05T02:00:05.975Z,100608.00
2023-05-05T02:02:44.649Z,100607.16
2023-05-05T02:05:12.087Z,100599.34
2023-05-05T02:07:40.000Z,100609.91
2023-05-05T02:10:08.314Z,100606.66
2023-05-05T02:12:37.581Z,100604.03
2023-05-05T02:15:05.433Z,100604.03
2023-05-05T02:17:33.152Z,100599.59
2023-05-05T02:20:02.219Z,100603.44
2023-05-05T02:22:29.585Z,100605.81
2023-05-05T02:24:57.175Z,100602.25
2023-05-05T02:27:24.563Z,100604.50
2023-05-05T02:29:59.178Z,100597.06
2023-05-05T02:32:38.187Z,100601.16
2023-05-05T02:35:32.656Z,100598.16
2023-05-05T02:38:04.882Z,100597.41
2023-05-05T02:40:34.532Z,100604.50
2023-05-05T02:43:08.263Z,100594.53
2023-05-05T02:45:35.706Z,100607.13
2023-05-05T02:48:04.256Z,100604.62
2023-05-05T02:50:32.298Z,100601.75
2023-05-05T02:53:00.531Z,100604.97
2023-05-05T02:55:33.344Z,100599.97
2023-05-05T02:58:03.235Z,100609.31
2023-05-05T03:00:41.753Z,100603.53
2023-05-05T03:03:26.462Z,100603.41
2023-05-05T03:06:02.788Z,100606.19
2023-05-05T03:08:37.208Z,100598.16
2023-05-05T03:11:07.437Z,100604.88
2023-05-05T03:13:37.337Z,100596.22
2023-05-05T03:16:06.892Z,100603.91
2023-05-05T03:18:34.826Z,100602.97
2023-05-05T03:21:08.633Z,100609.09
2023-05-05T03:23:36.944Z,100593.44
2023-05-05T03:26:05.028Z,100599.94
2023-05-05T03:28:32.621Z,100608.72
2023-05-05T03:31:01.149Z,100604.41
2023-05-05T03:33:28.378Z,100603.69
2023-05-05T03:35:56.088Z,100603.53
2023-05-05T03:38:23.489Z,100608.34
2023-05-05T03:40:50.875Z,100601.75
2023-05-05T03:43:19.666Z,100601.50
2023-05-05T03:45:47.583Z,100600.63
2023-05-05T03:48:15.206Z,100606.41
2023-05-05T03:50:45.130Z,100605.59
2023-05-05T03:53:13.109Z,100611.25
2023-05-05T03:55:41.390Z,100614.75
2023-05-05T03:58:08.530Z,100616.84
2023-05-05T04:00:36.103Z,100612.56
2023-05-05T04:03:04.278Z,100620.50
2023-05-05T04:05:31.556Z,100620.78
2023-05-05T04:07:59.109Z,100624.84
2023-05-05T04:10:26.786Z,100622.88
2023-05-05T04:12:54.440Z,100626.97
2023-05-05T04:15:22.123Z,100634.41
2023-05-05T04:17:50.029Z,100627.09
2023-05-05T04:20:17.881Z,100632.97
2023-05-05T04:22:45.068Z,100627.41
2023-05-05T04:25:12.600Z,100627.22
2023-05-05T04:27:39.784Z,100627.84
2023-05-05T04:30:08.478Z,100624.75
2023-05-05T04:32:37.141Z,100625.84
2023-05-05T04:35:05.205Z,100627.59
2023-05-05T04:37:32.681Z,100628.75
2023-05-05T04:40:00.537Z,100636.09
2023-05-05T04:42:28.530Z,100639.94
2023-05-05T04:44:55.854Z,100638.06
2023-05-05T04:47:23.627Z,100647.06
2023-05-05T04:49:51.331Z,100644.19
2023-05-05T04:52:18.770Z,100645.12
2023-05-05T04:54:46.253Z,100650.59
2023-05-05T04:57:13.406Z,100648.91
2023-05-05T04:59:41.644Z,100658.16
2023-05-05T05:02:09.300Z,100656.34
2023-05-05T05:04:36.688Z,100662.06
2023-05-05T05:07:03.989Z,100657.37
2023-05-05T05:09:31.723Z,100655.03
2023-05-05T05:12:00.701Z,100654.13
2023-05-05T05:14:28.341Z,100653.87
2023-05-05T05:16:56.136Z,100660.63
2023-05-05T05:19:23.788Z,100662.59
2023-05-05T05:21:51.000Z,100670.31
2023-05-05T05:24:18.775Z,100666.66
2023-05-05T05:26:47.207Z,100664.44
2023-05-05T05:29:14.814Z,100674.94
2023-05-05T05:31:42.559Z,100667.53
2023-05-05T05:34:12.606Z,100679.09
2023-05-05T05:36:40.920Z,100682.94
2023-05-05T05:39:08.502Z,100685.72
2023-05-05T05:41:35.794Z,100690.78
2023-05-05T05:44:03.505Z,100688.69
2023-05-05T05:46:31.661Z,100695.41
2023-05-05T05:48:59.056Z,100698.19
2023-05-05T05:51:26.617Z,100699.19
2023-05-05T05:53:55.413Z,100699.19
2023-05-05T05:56:23.625Z,100701.81
2023-05-05T05:58:51.937Z,100705.09
2023-05-05T06:01:19.950Z,100701.84
2023-05-05T06:03:47.927Z,100708.81
2023-05-05T06:06:16.508Z,100702.78
2023-05-05T06:08:44.696Z,100698.28
2023-05-05T06:11:12.405Z,100698.09
2023-05-05T06:13:40.030Z,100693.53
2023-05-05T06:16:08.061Z,100699.56
2023-05-05T06:18:36.956Z,100694.13
2023-05-05T06:21:04.618Z,100704.69
2023-05-05T06:23:32.133Z,100698.19
2023-05-05T06:26:00.066Z,100700.91
2023-05-05T06:28:27.483Z,100694.87
2023-05-05T06:30:54.709Z,100694.97
2023-05-05T06:33:22.443Z,100692.91
2023-05-05T06:35:52.074Z,100694.16
2023-05-05T06:38:19.403Z,100689.69
2023-05-05T06:40:50.065Z,100681.06
2023-05-05T06:43:17.700Z,100680.84
2023-05-05T06:45:46.126Z,100687.19
2023-05-05T06:48:13.988Z,100682.62
2023-05-05T06:50:42.277Z,100685.00
2023-05-05T06:53:09.679Z,100685.84
2023-05-05T06:55:37.406Z,100686.84
2023-05-05T06:58:04.649Z,100691.22
2023-05-05T07:00:32.132Z,100695.41
2023-05-05T07:02:59.968Z,100692.81
2023-05-05T07:05:27.369Z,100706.47
2023-05-05T07:07:55.674Z,100697.91
2023-05-05T07:10:24.384Z,100689.25
2023-05-05T07:12:52.575Z,100691.94
2023-05-05T07:15:28.610Z,100686.22
2023-05-05T07:21:27.799Z,100701.03
2023-05-05T07:23:55.348Z,100694.28
2023-05-05T07:26:22.655Z,100687.41
2023-05-05T07:28:52.143Z,100695.31
2023-05-05T07:31:20.128Z,100695.84
2023-05-05T07:37:06.449Z,100687.47
2023-05-05T07:39:34.316Z,100699.88
2023-05-05T07:45:31.905Z,100697.50
2023-05-05T07:47:59.639Z,100696.94
2023-05-05T07:50:27.244Z,100692.09
2023-05-05T07:53:02.346Z,100691.09
2023-05-05T07:55:33.965Z,100696.09
2023-05-05T07:58:01.342Z,100693.88
2023-05-05T08:00:28.508Z,100687.66
2023-05-05T08:02:56.134Z,100694.03
2023-05-05T08:05:23.652Z,100693.12
2023-05-05T08:07:50.947Z,100683.56
2023-05-05T08:10:18.713Z,100695.41
2023-05-05T08:12:46.022Z,100687.81
2023-05-05T08:15:13.350Z,100693.53
2023-05-05T08:17:49.196Z,100693.50
2023-05-05T08:20:17.856Z,100683.94
2023-05-05T08:22:45.895Z,100684.53
2023-05-05T08:25:14.241Z,100686.88
2023-05-05T08:27:42.562Z,100683.25
2023-05-05T08:30:10.837Z,100690.34
2023-05-05T08:32:38.716Z,100689.94
2023-05-05T08:35:07.278Z,100680.34
2023-05-05T08:37:37.943Z,100691.72
2023-05-05T08:40:06.192Z,100695.19
2023-05-05T08:42:38.502Z,100692.22
2023-05-05T08:45:08.929Z,100691.94
2023-05-05T08:47:37.361Z,100689.00
2023-05-05T08:50:08.087Z,100686.66
2023-05-05T08:52:41.419Z,100682.16
2023-05-05T08:55:24.585Z,100686.06
2023-05-05T08:57:57.018Z,100671.66
2023-05-05T09:00:27.251Z,100673.19
2023-05-05T09:02:57.699Z,100676.84
2023-05-05T09:05:25.936Z,100679.16
2023-05-05T09:07:53.184Z,100665.84
2023-05-05T09:13:54.985Z,100669.19
2023-05-05T09:16:23.197Z,100663.53
2023-05-05T09:18:50.532Z,100656.53
2023-05-05T09:21:25.459Z,100659.25
2023-05-05T09:24:12.477Z,100652.06
2023-05-05T09:26:44.184Z,100649.59
2023-05-05T09:29:19.617Z,100652.06
2023-05-05T09:32:05.704Z,100642.12
2023-05-05T09:34:35.199Z,100635.94
2023-05-05T09:37:02.542Z,100646.25
2023-05-05T09:39:29.942Z,100646.72
2023-05-05T09:41:58.648Z,100646.56
2023-05-05T09:44:40.159Z,100650.28
2023-05-05T09:47:18.093Z,100645.44
2023-05-05T09:49:59.259Z,100636.87
2023-05-05T09:52:26.868Z,100643.38
2023-05-05T09:54:58.233Z,100627.84
2023-05-05T09:57:33.422Z,100633.75
2023-05-05T10:00:02.553Z,100630.31
2023-05-05T10:02:35.129Z,100625.56
2023-05-05T10:05:13.105Z,100624.25
2023-05-05T10:07:42.275Z,100626.09
2023-05-05T10:10:15.094Z,100617.38
2023-05-05T10:12:43.208Z,100617.13
2023-05-05T10:15:12.063Z,100609.34
2023-05-05T10:18:02.450Z,100611.75
2023-05-05T10:20:36.672Z,100607.31
2023-05-05T10:23:06.393Z,100611.22
2023-05-05T10:25:35.918Z,100602.78
2023-05-05T10:28:06.934Z,100602.78
2023-05-05T10:30:39.766Z,100593.06
2023-05-05T10:33:30.362Z,100592.59
2023-05-05T10:36:02.556Z,100599.78
2023-05-05T10:38:34.119Z,100595.78
2023-05-05T10:41:06.772Z,100596.44
2023-05-05T10:43:58.603Z,100592.47
2023-05-05T10:46:29.726Z,100585.66
2023-05-05T10:49:25.967Z,100578.44
2023-05-05T10:52:08.985Z,100576.56
2023-05-05T10:54:42.460Z,100577.28
2023-05-05T10:57:22.745Z,100570.25
2023-05-05T10:59:51.445Z,100570.78
2023-05-05T11:02:48.078Z,100563.03
2023-05-05T11:05:22.755Z,100552.94
2023-05-05T11:07:56.838Z,100552.34
2023-05-05T11:10:32.102Z,100558.69
2023-05-05T11:13:19.897Z,100545.34
2023-05-05T11:15:54.379Z,100547.22
2023-05-05T11:18:36.520Z,100551.53
2023-05-05T11:21:07.737Z,100545.66
2023-05-05T11:23:35.374Z,100541.28
2023-05-05T11:26:02.703Z,100530.69
2023-05-05T11:28:31.547Z,100538.97
2023-05-05T11:31:01.978Z,100536.06
2023-05-05T11:33:29.277Z,100528.91
2023-05-05T11:36:07.333Z,100540.25
2023-05-05T11:39:02.793Z,100530.66
2023-05-05T11:41:32.769Z,100520.59
2023-05-05T11:44:14.624Z,100520.84
2023-05-05T11:47:04.468Z,100515.88
2023-05-05T11:49:33.008Z,100516.03
2023-05-05T11:52:03.602Z,100509.53
2023-05-05T11:54:31.883Z,100501.81
2023-05-05T11:57:07.832Z,100515.37
2023-05-05T11:59:37.562Z,100509.97
2023-05-05T12:02:05.505Z,100501.91
2023-05-05T12:04:34.891Z,100498.84
2023-05-05T12:07:02.452Z,100509.34
2023-05-05T12:09:30.121Z,100502.97
2023-05-05T12:11:59.785Z,100494.44
2023-05-05T12:14:27.766Z,100494.44
2023-05-05T12:16:56.154Z,100490.19
2023-05-05T12:19:24.766Z,100491.06
2023-05-05T12:21:54.308Z,100494.28
2023-05-05T12:24:21.778Z,100489.28
2023-05-05T12:26:49.345Z,100495.09
2023-05-05T12:29:28.972Z,100493.47
2023-05-05T12:31:58.160Z,100496.84
2023-05-05T12:34:26.452Z,100483.75
2023-05-05T12:36:53.759Z,100473.34
2023-05-05T12:39:21.513Z,100471.88
2023-05-05T12:41:49.363Z,100467.44
2023-05-05T12:47:49.892Z,100470.38
2023-05-05T12:50:32.749Z,100471.56
2023-05-05T12:53:00.146Z,100462.00
2023-05-05T12:55:37.680Z,100464.13
2023-05-05T12:58:05.070Z,100464.09
2023-05-05T13:00:32.640Z,100460.47
2023-05-05T13:03:00.150Z,100456.31
2023-05-05T13:05:32.791Z,100459.31
2023-05-05T13:08:00.512Z,100449.59
2023-05-05T13:10:31.458Z,100450.28
2023-05-05T13:12:59.148Z,100442.03
2023-05-05T13:15:27.649Z,100441.06
2023-05-05T13:18:01.873Z,100433.09
2023-05-05T13:20:29.690Z,100433.28
2023-05-05T13:22:57.448Z,100431.62
2023-05-05T13:25:25.197Z,100423.97
2023-05-05T13:27:53.099Z,100424.56
2023-05-05T13:30:20.936Z,100422.31
2023-05-05T13:32:48.356Z,100416.56
2023-05-05T13:35:17.272Z,100414.88
2023-05-05T13:37:46.750Z,100415.91
2023-05-05T13:40:14.298Z,100400.06
2023-05-05T13:42:42.035Z,100405.94
2023-05-05T13:45:10.053Z,100403.47
2023-05-05T13:47:38.112Z,100402.19
2023-05-05T13:50:06.335Z,100407.19
2023-05-05T13:52:33.927Z,100399.28
2023-05-05T13:55:01.458Z,100399.28
2023-05-05T13:57:29.339Z,100393.50
2023-05-05T13:59:56.903Z,100392.25
2023-05-05T14:02:24.199Z,100389.37
2023-05-05T14:04:51.829Z,100391.00
2023-05-05T14:07:19.170Z,100392.47
2023-05-05T14:09:46.392Z,100390.59
2023-05-05T14:12:14.046Z,100384.81
2023-05-05T14:14:41.404Z,100391.66
2023-05-05T14:17:08.922Z,100391.03
2023-05-05T14:19:36.624Z,100390.78
2023-05-05T14:22:04.267Z,100389.16
2023-05-05T14:24:31.574Z,100386.47
2023-05-05T14:26:59.041Z,100381.88
2023-05-05T14:29:27.719Z,100378.16
2023-05-05T14:31:55.030Z,100373.78
2023-05-05T14:34:23.064Z,100374.00
2023-05-05T14:36:50.923Z,100368.63
2023-05-05T14:39:18.333Z,100370.69
2023-05-05T14:41:46.635Z,100369.03
2023-05-05T14:44:14.084Z,100369.84
2023-05-05T14:46:41.738Z,100370.69
2023-05-05T14:49:10.244Z,100366.09
2023-05-05T14:51:37.531Z,100359.88
2023-05-05T14:54:09.322Z,100367.16
2023-05-05T14:56:42.176Z,100360.25
2023-05-05T14:59:09.948Z,100357.41
2023-05-05T15:01:37.391Z,100359.69
2023-05-05T15:04:05.465Z,100356.81
2023-05-05T15:06:32.878Z,100365.94
2023-05-05T15:09:02.111Z,100360.72
2023-05-05T15:11:29.821Z,100355.53
2023-05-05T15:13:57.311Z,100359.72
2023-05-05T15:16:24.887Z,100357.81
2023-05-05T15:18:52.769Z,100356.59
2023-05-05T15:21:23.250Z,100360.09
2023-05-05T15:23:50.822Z,100354.09
2023-05-05T15:26:18.829Z,100354.09
2023-05-05T15:28:48.197Z,100361.53
2023-05-05T15:31:17.157Z,100350.19
2023-05-05T15:33:46.853Z,100347.75
2023-05-05T15:36:22.894Z,100338.87
2023-05-05T15:38:51.038Z,100353.38
2023-05-05T15:41:18.573Z,100353.22
2023-05-05T15:43:45.965Z,100351.09
2023-05-05T15:46:13.707Z,100331.28
2023-05-05T15:48:41.335Z,100340.72
2023-05-05T15:51:08.798Z,100350.03
2023-05-05T15:53:36.553Z,100339.03
2023-05-05T15:56:06.270Z,100336.34
2023-05-05T15:58:33.788Z,100331.59
2023-05-05T16:01:11.966Z,100336.59
2023-05-05T16:03:43.552Z,100335.13
2023-05-05T16:06:13.924Z,100333.62
2023-05-05T16:08:41.689Z,100337.78
2023-05-05T16:11:09.996Z,100328.19
2023-05-05T16:13:39.243Z,100327.88
2023-05-05T16:16:07.184Z,100330.78
2023-05-05T16:18:34.433Z,100323.25
2023-05-05T16:21:02.683Z,100325.34
2023-05-05T16:23:30.582Z,100322.84
2023-05-05T16:25:57.942Z,100323.69
2023-05-05T16:28:26.105Z,100321.91
2023-05-05T16:30:53.913Z,100316.69
2023-05-05T16:33:21.269Z,100314.34
2023-05-05T16:35:48.929Z,100318.25
2023-05-05T16:38:16.787Z,100323.66
2023-05-05T16:40:44.563Z,100317.66
2023-05-05T16:43:12.054Z,100315.81
2023-05-05T16:45:39.685Z,100320.34
2023-05-05T16:48:09.066Z,100321.81
2023-05-05T16:50:37.351Z,100317.22
2023-05-05T16:53:09.079Z,100317.41
2023-05-05T16:55:37.000Z,100312.03
2023-05-05T16:58:04.552Z,100307.66
2023-05-05T17:00:31.823Z,100313.22
2023-05-05T17:02:59.279Z,100318.97
2023-05-05T17:05:27.056Z,100323.00
2023-05-05T17:07:54.558Z,100324.81
2023-05-05T17:10:21.996Z,100317.53
2023-05-05T17:12:49.794Z,100313.75
2023-05-05T17:15:17.387Z,100322.88
2023-05-05T17:17:44.710Z,100319.13
2023-05-05T17:20:14.156Z,100325.69
2023-05-05T17:22:41.823Z,100322.09
2023-05-05T17:25:10.087Z,100318.53
2023-05-05T17:27:38.459Z,100321.75
2023-05-05T17:30:06.747Z,100318.31
2023-05-05T17:32:34.032Z,100323.88
2023-05-05T17:35:01.866Z,100325.59
2023-05-05T17:37:29.519Z,100321.38
2023-05-05T17:39:56.845Z,100322.47
2023-05-05T17:42:27.069Z,100329.13
2023-05-05T17:44:54.302Z,100324.44
2023-05-05T17:47:22.540Z,100327.19
2023-05-05T17:49:51.868Z,100326.75
2023-05-05T17:52:19.247Z,100319.72
2023-05-05T17:54:46.846Z,100324.66
2023-05-05T17:57:16.760Z,100326.31
2023-05-05T17:59:44.666Z,100323.72
2023-05-05T18:02:12.160Z,100334.06
2023-05-05T18:04:39.953Z,100332.91
2023-05-05T18:07:07.848Z,100329.91
2023-05-05T18:09:35.060Z,100331.69
2023-05-05T18:12:03.758Z,100329.81
2023-05-05T18:14:32.970Z,100328.56
2023-05-05T18:17:00.233Z,100329.78
2023-05-05T18:19:27.835Z,100334.69
2023-05-05T18:21:55.473Z,100334.41
2023-05-05T18:24:23.004Z,100330.59
2023-05-05T18:26:52.073Z,100336.16
2023-05-05T18:29:21.603Z,100346.97
2023-05-05T18:31:51.903Z,100342.69
2023-05-05T18:34:20.699Z,100341.41
2023-05-05T18:36:50.067Z,100336.94
2023-05-05T18:39:17.936Z,100344.16
2023-05-05T18:41:45.810Z,100337.84
2023-05-05T18:44:13.031Z,100336.50
2023-05-05T18:46:40.973Z,100342.84
2023-05-05T18:49:10.858Z,100341.22
2023-05-05T18:51:41.531Z,100346.75
2023-05-05T18:54:10.677Z,100343.28
2023-05-05T18:56:37.979Z,100340.25
2023-05-05T18:59:05.286Z,100350.44
2023-05-05T19:01:33.009Z,100349.78
2023-05-05T19:04:00.895Z,100351.97
2023-05-05T19:06:28.321Z,100355.31
2023-05-05T19:08:56.912Z,100353.31
2023-05-05T19:11:25.494Z,100350.28
2023-05-05T19:13:52.984Z,100350.94
2023-05-05T19:16:21.078Z,100361.97
2023-05-05T19:18:48.793Z,100359.44
2023-05-05T19:21:16.303Z,100358.28
2023-05-05T19:23:45.478Z,100358.63
2023-05-05T19:26:14.047Z,100354.59
2023-05-05T19:28:41.389Z,100354.22
2023-05-05T19:31:09.133Z,100355.03
2023-05-05T19:33:36.661Z,100350.66
2023-05-05T19:36:04.221Z,100354.44
2023-05-05T19:38:32.018Z,100353.94
2023-05-05T19:40:59.268Z,100358.44
2023-05-05T19:43:26.637Z,100349.56
2023-05-05T19:45:54.394Z,100350.22
2023-05-05T19:48:22.436Z,100354.34
2023-05-05T19:50:49.915Z,100355.97
2023-05-05T19:53:17.799Z,100347.50
2023-05-05T19:55:45.046Z,100351.28
2023-05-05T19:58:12.738Z,100353.94
2023-05-05T20:00:43.064Z,100354.91
2023-05-05T20:03:11.204Z,100353.53
2023-05-05T20:05:38.690Z,100351.47
2023-05-05T20:08:06.306Z,100354.44
2023-05-05T20:10:34.654Z,100345.53
2023-05-05T20:13:01.993Z,100356.19
2023-05-05T20:15:30.672Z,100348.38
2023-05-05T20:17:58.988Z,100350.66
2023-05-05T20:20:26.415Z,100351.03
2023-05-05T20:22:53.837Z,100346.16
2023-05-05T20:25:28.078Z,100343.31
2023-05-05T20:27:55.433Z,100348.53
2023-05-05T20:30:23.676Z,100353.53
2023-05-05T20:32:51.474Z,100351.47
2023-05-05T20:35:18.802Z,100350.78
2023-05-05T20:37:46.402Z,100342.56
2023-05-05T20:40:14.036Z,100342.28
2023-05-05T20:42:41.267Z,100339.47
2023-05-05T20:45:10.634Z,100342.13
2023-05-05T20:47:38.340Z,100345.19
2023-05-05T20:50:06.510Z,100349.72
2023-05-05T20:52:34.765Z,100341.91
2023-05-05T20:55:02.259Z,100337.25
2023-05-05T20:57:29.601Z,100337.97
2023-05-05T20:59:56.893Z,100339.41
2023-05-05T21:02:32.085Z,100333.78
2023-05-05T21:05:03.141Z,100323.06
2023-05-05T21:07:32.511Z,100322.84
2023-05-05T21:10:00.901Z,100330.38
2023-05-05T21:12:29.588Z,100330.97
2023-05-05T21:14:59.951Z,100323.59
2023-05-05T21:17:27.624Z,100329.53
2023-05-05T21:19:55.362Z,100327.47
2023-05-05T21:22:22.975Z,100321.31
2023-05-05T21:24:51.281Z,100324.66
2023-05-05T21:27:18.637Z,100320.53
2023-05-05T21:29:46.438Z,100322.28
2023-05-05T21:32:13.651Z,100320.88
2023-05-05T21:34:41.029Z,100321.59
2023-05-05T21:37:08.526Z,100314.06
2023-05-05T21:39:35.779Z,100307.50
2023-05-05T21:42:03.154Z,100305.13
2023-05-05T21:44:30.868Z,100304.38
2023-05-05T21:46:57.962Z,100299.56
2023-05-05T21:49:25.360Z,100292.91
2023-05-05T21:51:52.808Z,100295.59
2023-05-05T21:57:50.872Z,100291.69
2023-05-05T22:00:18.482Z,100298.69
2023-05-05T22:02:46.085Z,100296.75
2023-05-05T22:05:13.518Z,100296.25
2023-05-05T22:07:40.902Z,100302.59
2023-05-05T22:10:09.186Z,100302.03
2023-05-05T22:12:36.426Z,100307.19
2023-05-05T22:15:03.796Z,100305.37
2023-05-05T22:17:31.300Z,100302.31
2023-05-05T22:19:58.528Z,100311.37
2023-05-05T22:25:57.019Z,100309.16
2023-05-05T22:28:24.564Z,100296.03
2023-05-05T22:30:52.035Z,100306.66
2023-05-05T22:33:19.249Z,100310.44
2023-05-05T22:35:46.798Z,100314.47
2023-05-05T22:38:14.164Z,100314.78
2023-05-05T22:40:41.416Z,100317.00
2023-05-05T22:43:08.966Z,100316.28
2023-05-05T22:45:36.164Z,100322.56
2023-05-05T22:48:03.887Z,100324.78
2023-05-05T22:50:31.654Z,100325.88
2023-05-05T22:52:58.901Z,100324.78
2023-05-05T22:55:26.857Z,100321.84
2023-05-05T22:57:54.462Z,100325.31
2023-05-05T23:00:21.591Z,100318.63
2023-05-05T23:02:49.049Z,100317.47
2023-05-05T23:05:16.867Z,100323.19
2023-05-05T23:07:44.117Z,100316.34
2023-05-05T23:10:11.532Z,100321.09
2023-05-05T23:12:39.051Z,100317.16
2023-05-05T23:15:08.203Z,100313.53
2023-05-05T23:17:35.687Z,100316.34
2023-05-05T23:20:04.396Z,100305.44
2023-05-05T23:22:31.835Z,100307.09
2023-05-05T23:24:59.081Z,100301.22
2023-05-05T23:27:26.636Z,100300.41
2023-05-05T23:29:53.895Z,100297.91
2023-05-05T23:32:21.427Z,100299.31
2023-05-05T23:34:49.234Z,100301.00
2023-05-05T23:37:16.420Z,100299.31
2023-05-05T23:39:43.615Z,100296.78
2023-05-05T23:42:11.318Z,100295.41
2023-05-05T23:44:38.527Z,100296.97
2023-05-05T23:47:06.201Z,100297.06
2023-05-05T23:49:33.657Z,100301.63
2023-05-05T23:52:00.965Z,100297.50
2023-05-05T23:54:28.170Z,100294.94
2023-05-05T23:56:55.647Z,100288.53
2023-05-05T23:59:22.992Z,100286.97
